createdAt,value
2023-09-27T00:00:20.889Z,36.42
2023-09-27T00:01:20.979Z,38.03
2023-09-27T00:02:20.944Z,36.74
2023-09-27T00:03:20.937Z,36.25
2023-09-27T00:04:20.858Z,38.03
2023-09-27T00:05:21.593Z,39.32
2023-09-27T00:06:20.863Z,41.57
2023-09-27T00:07:20.880Z,41.89
2023-09-27T00:08:20.874Z,38.51
2023-09-27T00:09:20.822Z,38.99
2023-09-27T00:10:20.838Z,38.51
2023-09-27T00:11:20.966Z,37.87
2023-09-27T00:12:20.791Z,36.90
2023-09-27T00:13:20.832Z,37.22
2023-09-27T00:14:20.790Z,36.58
2023-09-27T00:15:20.805Z,37.06
2023-09-27T00:16:20.840Z,41.25
2023-09-27T00:17:20.789Z,40.93
2023-09-27T00:18:20.794Z,43.18
2023-09-27T00:19:20.738Z,53.17
2023-09-27T00:20:20.810Z,53.98
2023-09-27T00:21:20.748Z,54.14
2023-09-27T00:22:20.764Z,54.79
2023-09-27T00:23:20.811Z,54.30
2023-09-27T00:24:20.716Z,54.62
2023-09-27T00:25:20.728Z,54.14
2023-09-27T00:26:20.736Z,54.14
2023-09-27T00:27:20.674Z,53.98
2023-09-27T00:28:21.668Z,54.14
2023-09-27T00:29:20.714Z,55.27
2023-09-27T00:30:20.751Z,55.11
2023-09-27T00:31:20.691Z,54.30
2023-09-27T00:32:20.663Z,54.30
2023-09-27T00:33:20.704Z,54.46
2023-09-27T00:34:20.668Z,53.98
2023-09-27T00:35:21.018Z,54.14
2023-09-27T00:36:20.636Z,40.61
2023-09-27T00:37:20.623Z,38.19
2023-09-27T00:38:20.666Z,38.83
2023-09-27T00:39:20.637Z,38.35
2023-09-27T00:40:20.585Z,38.51
2023-09-27T00:41:20.563Z,41.89
2023-09-27T00:42:20.572Z,49.79
2023-09-27T00:43:20.560Z,52.53
2023-09-27T00:44:20.571Z,52.53
2023-09-27T00:45:20.537Z,53.98
2023-09-27T00:46:20.582Z,53.33
2023-09-27T00:47:20.543Z,53.33
2023-09-27T00:48:20.534Z,53.66
2023-09-27T00:49:20.530Z,53.66
2023-09-27T00:50:20.635Z,36.25
2023-09-27T00:51:20.496Z,35.29
2023-09-27T00:52:20.494Z,34.80
2023-09-27T00:53:20.523Z,37.54
2023-09-27T00:54:20.492Z,37.22
2023-09-27T00:55:20.526Z,36.90
2023-09-27T00:56:20.453Z,36.90
2023-09-27T00:57:20.444Z,35.77
2023-09-27T00:58:20.638Z,36.58
2023-09-27T00:59:20.470Z,36.42
2023-09-27T01:00:20.411Z,35.77
2023-09-27T01:01:20.474Z,38.35
2023-09-27T01:02:20.424Z,38.67
2023-09-27T01:03:20.590Z,37.71
2023-09-27T01:04:20.395Z,38.03
2023-09-27T01:05:20.489Z,38.19
2023-09-27T01:06:20.394Z,39.16
2023-09-27T01:07:20.423Z,38.35
2023-09-27T01:08:20.444Z,39.32
2023-09-27T01:09:20.401Z,38.67
2023-09-27T01:10:20.383Z,38.03
2023-09-27T01:11:20.364Z,38.83
2023-09-27T01:12:20.355Z,38.83
2023-09-27T01:13:20.341Z,38.83
2023-09-27T01:14:20.337Z,36.58
2023-09-27T01:15:20.320Z,38.99
2023-09-27T01:16:20.329Z,41.09
2023-09-27T01:17:20.346Z,40.93
2023-09-27T01:18:20.329Z,39.32
2023-09-27T01:19:20.278Z,37.38
2023-09-27T01:20:20.351Z,37.38
2023-09-27T01:21:20.266Z,37.54
2023-09-27T01:22:20.309Z,37.22
2023-09-27T01:23:20.308Z,37.71
2023-09-27T01:24:20.237Z,37.38
2023-09-27T01:25:20.271Z,42.06
2023-09-27T01:26:20.304Z,39.32
2023-09-27T01:27:20.252Z,41.09
2023-09-27T01:28:20.209Z,38.35
2023-09-27T01:29:20.247Z,39.16
2023-09-27T01:30:20.187Z,42.06
2023-09-27T01:31:20.257Z,38.51
2023-09-27T01:32:20.282Z,40.93
2023-09-27T01:33:20.244Z,39.48
2023-09-27T01:34:20.189Z,38.83
2023-09-27T01:35:20.283Z,37.54
2023-09-27T01:36:20.208Z,35.93
2023-09-27T01:37:20.146Z,35.93
2023-09-27T01:38:20.183Z,37.22
2023-09-27T01:39:20.130Z,36.58
2023-09-27T01:40:20.116Z,36.09
2023-09-27T01:41:20.171Z,37.06
2023-09-27T01:42:20.100Z,38.03
2023-09-27T01:43:20.100Z,37.22
2023-09-27T01:44:20.110Z,39.64
2023-09-27T01:45:20.105Z,39.32
2023-09-27T01:46:20.122Z,51.24
2023-09-27T01:47:20.111Z,51.56
2023-09-27T01:48:20.105Z,53.66
2023-09-27T01:49:20.046Z,53.33
2023-09-27T01:50:20.096Z,53.66
2023-09-27T01:51:20.040Z,53.01
2023-09-27T01:52:20.019Z,53.17
2023-09-27T01:53:21.100Z,45.60
2023-09-27T01:54:20.027Z,37.54
2023-09-27T01:55:20.038Z,36.25
2023-09-27T01:56:20.175Z,36.09
2023-09-27T01:57:21.105Z,39.80
2023-09-27T01:58:19.989Z,39.16
2023-09-27T01:59:20.015Z,37.22
2023-09-27T02:00:20.015Z,39.32
2023-09-27T02:01:19.995Z,37.87
2023-09-27T02:02:20.056Z,37.87
2023-09-27T02:03:20.062Z,35.29
2023-09-27T02:04:19.961Z,38.35
2023-09-27T02:05:19.987Z,38.67
2023-09-27T02:06:19.925Z,48.82
2023-09-27T02:07:19.911Z,49.95
2023-09-27T02:08:19.940Z,53.50
2023-09-27T02:09:19.921Z,53.33
2023-09-27T02:10:19.886Z,52.85
2023-09-27T02:11:19.920Z,53.33
2023-09-27T02:12:19.885Z,53.82
2023-09-27T02:13:19.916Z,53.82
2023-09-27T02:14:19.937Z,53.82
2023-09-27T02:15:19.854Z,53.98
2023-09-27T02:16:19.906Z,39.32
2023-09-27T02:17:19.832Z,37.22
2023-09-27T02:18:19.871Z,37.38
2023-09-27T02:19:19.850Z,41.41
2023-09-27T02:20:19.859Z,38.03
2023-09-27T02:21:19.803Z,37.22
2023-09-27T02:22:19.804Z,38.83
2023-09-27T02:23:19.868Z,37.87
2023-09-27T02:24:19.774Z,36.90
2023-09-27T02:25:19.787Z,37.22
2023-09-27T02:26:19.804Z,36.42
2023-09-27T02:27:19.755Z,37.22
2023-09-27T02:28:19.787Z,37.22
2023-09-27T02:29:19.776Z,37.54
2023-09-27T02:30:19.770Z,36.58
2023-09-27T02:31:19.748Z,37.22
2023-09-27T02:32:19.769Z,36.90
2023-09-27T02:33:19.771Z,41.25
2023-09-27T02:34:19.707Z,41.25
2023-09-27T02:35:52.477Z,37.71
2023-09-27T02:36:19.690Z,45.12
2023-09-27T02:37:19.719Z,38.67
2023-09-27T02:38:19.714Z,40.44
2023-09-27T02:39:19.683Z,38.99
2023-09-27T02:40:19.662Z,39.16
2023-09-27T02:41:19.690Z,38.99
2023-09-27T02:42:19.668Z,37.22
2023-09-27T02:43:19.636Z,37.22
2023-09-27T02:44:19.668Z,37.71
2023-09-27T02:45:19.641Z,41.89
2023-09-27T02:46:19.615Z,39.64
2023-09-27T02:47:19.690Z,39.32
2023-09-27T02:48:19.640Z,37.22
2023-09-27T02:49:19.629Z,37.71
2023-09-27T02:50:19.614Z,39.96
2023-09-27T02:51:19.623Z,35.93
2023-09-27T02:52:19.602Z,38.03
2023-09-27T02:53:19.613Z,36.42
2023-09-27T02:54:19.569Z,38.35
2023-09-27T02:55:19.554Z,38.83
2023-09-27T02:56:19.645Z,42.06
2023-09-27T02:57:19.541Z,37.87
2023-09-27T02:58:19.535Z,39.16
2023-09-27T02:59:19.606Z,38.19
2023-09-27T03:00:19.514Z,36.74
2023-09-27T03:01:19.564Z,36.90
2023-09-27T03:02:19.529Z,38.83
2023-09-27T03:03:19.542Z,40.28
2023-09-27T03:04:19.480Z,40.77
2023-09-27T03:05:19.571Z,45.76
2023-09-27T03:06:19.495Z,53.66
2023-09-27T03:07:19.470Z,53.50
2023-09-27T03:08:19.500Z,53.66
2023-09-27T03:09:19.445Z,53.82
2023-09-27T03:10:19.534Z,53.82
2023-09-27T03:11:19.491Z,53.50
2023-09-27T03:12:19.439Z,53.66
2023-09-27T03:13:19.425Z,53.82
2023-09-27T03:14:19.474Z,43.18
2023-09-27T03:15:19.425Z,44.79
2023-09-27T03:16:19.443Z,39.16
2023-09-27T03:17:19.409Z,38.67
2023-09-27T03:18:19.424Z,37.54
2023-09-27T03:19:19.368Z,39.96
2023-09-27T03:20:19.414Z,38.99
2023-09-27T03:21:19.349Z,48.66
2023-09-27T03:22:19.342Z,49.63
2023-09-27T03:23:19.345Z,53.17
2023-09-27T03:24:19.348Z,53.50
2023-09-27T03:25:19.340Z,54.14
2023-09-27T03:26:19.340Z,53.50
2023-09-27T03:27:19.302Z,53.98
2023-09-27T03:28:19.288Z,53.50
2023-09-27T03:29:19.350Z,53.50
2023-09-27T03:30:19.283Z,54.14
2023-09-27T03:31:19.309Z,45.60
2023-09-27T03:32:19.280Z,38.51
2023-09-27T03:33:19.289Z,38.83
2023-09-27T03:34:19.285Z,42.38
2023-09-27T03:35:19.296Z,43.67
2023-09-27T03:36:19.230Z,46.89
2023-09-27T03:37:19.276Z,41.57
2023-09-27T03:38:19.286Z,40.61
2023-09-27T03:39:19.230Z,40.77
2023-09-27T03:40:19.207Z,40.93
2023-09-27T03:41:19.241Z,39.64
2023-09-27T03:42:19.183Z,47.86
2023-09-27T03:43:19.196Z,43.02
2023-09-27T03:44:19.242Z,39.48
2023-09-27T03:45:19.157Z,43.67
2023-09-27T03:46:19.282Z,43.34
2023-09-27T03:47:19.231Z,40.44
2023-09-27T03:48:19.332Z,40.77
2023-09-27T03:49:19.132Z,41.41
2023-09-27T03:50:19.205Z,40.93
2023-09-27T03:51:19.120Z,48.82
2023-09-27T03:52:19.132Z,42.22
2023-09-27T03:53:19.151Z,40.61
2023-09-27T03:54:19.100Z,41.25
2023-09-27T03:55:19.088Z,39.64
2023-09-27T03:56:19.108Z,39.64
2023-09-27T03:57:19.116Z,42.38
2023-09-27T03:58:19.134Z,39.80
2023-09-27T03:59:19.110Z,42.54
2023-09-27T04:00:19.146Z,39.32
2023-09-27T04:01:19.041Z,39.32
2023-09-27T04:02:20.140Z,48.82
2023-09-27T04:03:19.156Z,39.80
2023-09-27T04:04:19.053Z,38.83
2023-09-27T04:05:19.032Z,47.05
2023-09-27T04:06:19.036Z,39.32
2023-09-27T04:07:19.028Z,40.77
2023-09-27T04:08:19.061Z,39.48
2023-09-27T04:09:18.987Z,39.48
2023-09-27T04:10:18.972Z,40.44
2023-09-27T04:11:19.015Z,38.67
2023-09-27T04:12:18.966Z,39.32
2023-09-27T04:13:18.958Z,50.27
2023-09-27T04:14:18.988Z,40.77
2023-09-27T04:15:18.942Z,38.83
2023-09-27T04:16:18.981Z,39.32
2023-09-27T04:17:18.986Z,47.05
2023-09-27T04:18:18.939Z,39.32
2023-09-27T04:19:18.906Z,37.54
2023-09-27T04:20:18.981Z,40.61
2023-09-27T04:21:18.909Z,41.41
2023-09-27T04:22:18.907Z,42.54
2023-09-27T04:23:18.918Z,39.32
2023-09-27T04:24:18.871Z,49.95
2023-09-27T04:25:18.899Z,39.96
2023-09-27T04:26:18.915Z,40.93
2023-09-27T04:27:18.844Z,43.67
2023-09-27T04:28:18.835Z,48.98
2023-09-27T04:29:18.836Z,42.22
2023-09-27T04:30:18.851Z,42.06
2023-09-27T04:31:18.841Z,47.05
2023-09-27T04:32:18.889Z,44.63
2023-09-27T04:33:18.820Z,40.61
2023-09-27T04:34:18.800Z,40.44
2023-09-27T04:35:18.855Z,49.31
2023-09-27T04:36:18.865Z,46.57
2023-09-27T04:37:18.764Z,46.57
2023-09-27T04:38:18.766Z,41.09
2023-09-27T04:39:18.751Z,50.11
2023-09-27T04:40:18.846Z,49.47
2023-09-27T04:41:18.923Z,46.25
2023-09-27T04:42:18.728Z,49.63
2023-09-27T04:43:18.721Z,41.89
2023-09-27T04:44:18.724Z,48.34
2023-09-27T04:45:18.759Z,49.15
2023-09-27T04:46:18.747Z,48.02
2023-09-27T04:47:18.711Z,45.76
2023-09-27T04:48:18.800Z,38.51
2023-09-27T04:49:18.693Z,49.95
2023-09-27T04:50:18.733Z,47.86
2023-09-27T04:51:18.653Z,43.34
2023-09-27T04:52:18.649Z,45.60
2023-09-27T04:53:18.691Z,46.08
2023-09-27T04:54:18.656Z,50.11
2023-09-27T04:55:18.626Z,45.76
2023-09-27T04:56:18.647Z,42.54
2023-09-27T04:57:18.610Z,45.60
2023-09-27T04:58:18.600Z,48.98
2023-09-27T04:59:18.643Z,46.57
2023-09-27T05:00:18.586Z,48.66
2023-09-27T05:01:18.655Z,40.77
2023-09-27T05:02:18.599Z,47.21
2023-09-27T05:03:18.704Z,50.27
2023-09-27T05:04:18.610Z,48.82
2023-09-27T05:05:18.593Z,45.12
2023-09-27T05:06:18.546Z,43.18
2023-09-27T05:07:18.564Z,50.27
2023-09-27T05:08:18.558Z,50.11
2023-09-27T05:09:18.517Z,44.47
2023-09-27T05:10:18.511Z,41.73
2023-09-27T05:11:18.523Z,44.96
2023-09-27T05:12:18.496Z,49.79
2023-09-27T05:13:18.525Z,46.08
2023-09-27T05:14:18.528Z,50.27
2023-09-27T05:15:18.478Z,43.34
2023-09-27T05:16:18.487Z,40.93
2023-09-27T05:17:18.539Z,49.47
2023-09-27T05:18:18.505Z,46.41
2023-09-27T05:19:19.439Z,48.34
2023-09-27T05:20:18.469Z,54.14
2023-09-27T05:21:18.437Z,54.46
2023-09-27T05:22:18.445Z,53.98
2023-09-27T05:23:18.462Z,54.79
2023-09-27T05:24:18.402Z,55.27
2023-09-27T05:25:18.396Z,54.46
2023-09-27T05:26:18.415Z,55.27
2023-09-27T05:27:18.408Z,50.11
2023-09-27T05:28:18.363Z,41.89
2023-09-27T05:29:18.397Z,40.44
2023-09-27T05:30:18.351Z,48.82
2023-09-27T05:31:18.431Z,49.31
2023-09-27T05:32:18.408Z,47.05
2023-09-27T05:33:18.374Z,43.34
2023-09-27T05:34:18.327Z,43.51
2023-09-27T05:35:18.334Z,48.66
2023-09-27T05:36:18.339Z,45.12
2023-09-27T05:37:18.304Z,47.53
2023-09-27T05:38:18.313Z,42.22
2023-09-27T05:39:18.297Z,43.83
2023-09-27T05:40:18.283Z,46.73
2023-09-27T05:41:18.337Z,48.18
2023-09-27T05:42:18.264Z,47.70
2023-09-27T05:43:18.255Z,43.83
2023-09-27T05:44:18.266Z,43.51
2023-09-27T05:45:18.246Z,52.53
2023-09-27T05:46:18.327Z,52.53
2023-09-27T05:47:18.237Z,53.98
2023-09-27T05:48:18.278Z,54.14
2023-09-27T05:49:18.210Z,53.66
2023-09-27T05:50:18.231Z,53.66
2023-09-27T05:51:19.220Z,53.33
2023-09-27T05:52:18.221Z,53.98
2023-09-27T05:53:18.244Z,55.43
2023-09-27T05:54:18.175Z,54.46
2023-09-27T05:55:18.224Z,42.86
2023-09-27T05:56:18.187Z,50.92
2023-09-27T05:57:18.150Z,49.79
2023-09-27T05:58:18.137Z,48.98
2023-09-27T05:59:18.151Z,42.06
2023-09-27T06:00:18.156Z,44.31
2023-09-27T06:01:18.138Z,47.86
2023-09-27T06:02:18.189Z,45.28
2023-09-27T06:03:18.190Z,41.25
2023-09-27T06:04:18.199Z,43.18
2023-09-27T06:05:18.152Z,49.79
2023-09-27T06:06:18.079Z,47.05
2023-09-27T06:07:18.072Z,46.41
2023-09-27T06:08:18.097Z,48.02
2023-09-27T06:09:18.094Z,40.93
2023-09-27T06:10:18.056Z,49.15
2023-09-27T06:11:18.051Z,49.15
2023-09-27T06:12:18.028Z,45.92
2023-09-27T06:13:18.026Z,49.79
2023-09-27T06:14:18.073Z,42.06
2023-09-27T06:15:18.006Z,48.02
2023-09-27T06:16:18.045Z,47.05
2023-09-27T06:17:18.107Z,45.76
2023-09-27T06:18:18.071Z,51.88
2023-09-27T06:19:18.015Z,50.92
2023-09-27T06:20:18.014Z,45.12
2023-09-27T06:21:17.976Z,45.28
2023-09-27T06:22:17.969Z,40.12
2023-09-27T06:23:17.998Z,39.96
2023-09-27T06:24:17.933Z,48.82
2023-09-27T06:25:19.150Z,46.08
2023-09-27T06:26:18.970Z,41.57
2023-09-27T06:27:18.099Z,41.89
2023-09-27T06:28:17.936Z,48.34
2023-09-27T06:29:17.922Z,47.05
2023-09-27T06:30:17.894Z,40.93
2023-09-27T06:31:17.912Z,42.22
2023-09-27T06:32:17.923Z,49.79
2023-09-27T06:33:17.930Z,46.73
2023-09-27T06:34:17.862Z,42.70
2023-09-27T06:35:17.895Z,43.67
2023-09-27T06:36:17.860Z,47.53
2023-09-27T06:37:17.888Z,49.79
2023-09-27T06:38:17.915Z,46.73
2023-09-27T06:39:17.826Z,46.89
2023-09-27T06:40:17.910Z,40.61
2023-09-27T06:41:17.814Z,43.02
2023-09-27T06:42:17.839Z,49.31
2023-09-27T06:43:17.796Z,47.21
2023-09-27T06:44:17.828Z,44.96
2023-09-27T06:45:17.777Z,41.09
2023-09-27T06:46:18.000Z,43.99
2023-09-27T06:47:18.879Z,49.79
2023-09-27T06:48:17.874Z,46.25
2023-09-27T06:49:17.846Z,42.22
2023-09-27T06:50:17.783Z,41.57
2023-09-27T06:51:17.784Z,43.18
2023-09-27T06:52:17.752Z,44.47
2023-09-27T06:53:22.724Z,45.60
2023-09-27T06:54:19.760Z,41.89
2023-09-27T06:55:18.367Z,49.31
2023-09-27T06:56:17.727Z,42.70
2023-09-27T06:57:17.688Z,40.12
2023-09-27T06:58:17.679Z,39.96
2023-09-27T06:59:17.682Z,48.98
2023-09-27T07:00:17.667Z,43.51
2023-09-27T07:01:17.734Z,38.83
2023-09-27T07:02:17.685Z,38.67
2023-09-27T07:03:17.708Z,42.86
2023-09-27T07:04:17.704Z,45.12
2023-09-27T07:05:17.684Z,40.77
2023-09-27T07:06:17.640Z,48.18
2023-09-27T07:07:17.622Z,44.47
2023-09-27T07:08:17.633Z,39.16
2023-09-27T07:09:17.815Z,40.93
2023-09-27T07:10:17.646Z,49.63
2023-09-27T07:11:17.643Z,43.99
2023-09-27T07:12:17.586Z,38.51
2023-09-27T07:13:17.576Z,37.87
2023-09-27T07:14:17.573Z,49.79
2023-09-27T07:15:17.578Z,44.47
2023-09-27T07:16:17.568Z,41.25
2023-09-27T07:17:17.642Z,45.92
2023-09-27T07:18:17.580Z,50.11
2023-09-27T07:19:17.558Z,51.56
2023-09-27T07:20:17.646Z,54.30
2023-09-27T07:21:17.508Z,54.30
2023-09-27T07:22:17.505Z,53.50
2023-09-27T07:23:17.527Z,53.33
2023-09-27T07:24:17.525Z,53.33
2023-09-27T07:25:17.485Z,55.43
2023-09-27T07:26:17.562Z,54.14
2023-09-27T07:27:17.463Z,55.59
2023-09-27T07:28:17.459Z,54.46
2023-09-27T07:29:17.514Z,54.46
2023-09-27T07:30:17.542Z,55.59
2023-09-27T07:31:17.960Z,54.30
2023-09-27T07:32:17.474Z,54.14
2023-09-27T07:33:17.498Z,43.51
2023-09-27T07:34:17.432Z,40.93
2023-09-27T07:35:17.530Z,41.41
2023-09-27T07:36:17.385Z,45.60
2023-09-27T07:37:17.384Z,45.60
2023-09-27T07:38:17.421Z,42.86
2023-09-27T07:39:17.379Z,41.57
2023-09-27T07:40:17.377Z,42.06
2023-09-27T07:41:17.402Z,44.47
2023-09-27T07:42:17.408Z,44.15
2023-09-27T07:43:17.357Z,47.05
2023-09-27T07:44:17.377Z,42.54
2023-09-27T07:45:17.319Z,43.02
2023-09-27T07:46:17.341Z,43.18
2023-09-27T07:47:17.372Z,49.15
2023-09-27T07:48:17.394Z,45.44
2023-09-27T07:49:17.290Z,48.02
2023-09-27T07:50:17.398Z,39.96
2023-09-27T07:51:17.291Z,42.54
2023-09-27T07:52:17.301Z,43.67
2023-09-27T07:53:17.278Z,43.02
2023-09-27T07:54:17.316Z,40.28
2023-09-27T07:55:17.274Z,42.38
2023-09-27T07:56:17.310Z,48.34
2023-09-27T07:57:17.279Z,40.44
2023-09-27T07:58:17.224Z,40.28
2023-09-27T07:59:17.224Z,42.38
2023-09-27T08:00:18.253Z,44.15
2023-09-27T08:01:17.249Z,42.22
2023-09-27T08:02:17.252Z,43.51
2023-09-27T08:03:17.332Z,43.83
2023-09-27T08:04:17.313Z,44.96
2023-09-27T08:05:17.219Z,41.57
2023-09-27T08:06:17.162Z,42.06
2023-09-27T08:07:17.184Z,48.98
2023-09-27T08:08:17.181Z,40.44
2023-09-27T08:09:27.867Z,39.96
2023-09-27T08:10:21.808Z,47.21
2023-09-27T08:11:18.187Z,39.80
2023-09-27T08:12:17.141Z,43.18
2023-09-27T08:13:17.113Z,47.86
2023-09-27T08:14:17.165Z,42.22
2023-09-27T08:15:17.104Z,38.99
2023-09-27T08:16:17.142Z,40.77
2023-09-27T08:17:17.159Z,47.70
2023-09-27T08:18:17.183Z,43.34
2023-09-27T08:19:17.062Z,41.89
2023-09-27T08:20:17.112Z,47.05
2023-09-27T08:21:17.085Z,42.86
2023-09-27T08:22:17.043Z,41.57
2023-09-27T08:23:17.091Z,44.31
2023-09-27T08:24:17.035Z,45.28
2023-09-27T08:25:17.217Z,44.15
2023-09-27T08:26:17.082Z,43.83
2023-09-27T08:27:17.010Z,41.89
2023-09-27T08:28:16.984Z,40.44
2023-09-27T08:29:17.071Z,43.02
2023-09-27T08:30:17.010Z,39.96
2023-09-27T08:31:17.062Z,48.66
2023-09-27T08:32:16.988Z,46.57
2023-09-27T08:33:16.992Z,42.70
2023-09-27T08:34:16.942Z,42.06
2023-09-27T08:35:48.903Z,43.02
2023-09-27T08:36:16.937Z,43.02
2023-09-27T08:37:16.964Z,40.44
2023-09-27T08:38:16.930Z,46.57
2023-09-27T08:39:16.921Z,42.06
2023-09-27T08:40:16.938Z,43.18
2023-09-27T08:41:16.954Z,48.50
2023-09-27T08:42:16.901Z,47.37
2023-09-27T08:43:16.885Z,47.86
2023-09-27T08:44:16.959Z,43.83
2023-09-27T08:45:16.909Z,42.06
2023-09-27T08:46:16.934Z,43.02
2023-09-27T08:47:16.878Z,43.83
2023-09-27T08:48:16.856Z,43.02
2023-09-27T08:49:16.864Z,46.57
2023-09-27T08:50:16.869Z,47.53
2023-09-27T08:51:16.822Z,39.96
2023-09-27T08:52:16.808Z,40.44
2023-09-27T08:53:16.939Z,43.34
2023-09-27T08:54:16.838Z,42.06
2023-09-27T08:55:16.804Z,49.63
2023-09-27T08:56:16.818Z,43.02
2023-09-27T08:57:16.774Z,45.60
2023-09-27T08:58:17.737Z,45.60
2023-09-27T08:59:16.801Z,47.05
2023-09-27T09:00:16.818Z,44.63
2023-09-27T09:01:16.783Z,44.96
2023-09-27T09:02:16.780Z,45.44
2023-09-27T09:03:16.872Z,45.28
2023-09-27T09:04:16.850Z,44.79
2023-09-27T09:05:16.768Z,46.41
2023-09-27T09:06:16.704Z,44.63
2023-09-27T09:07:16.706Z,49.15
2023-09-27T09:08:21.206Z,48.34
2023-09-27T09:09:17.741Z,48.34
2023-09-27T09:10:16.677Z,43.18
2023-09-27T09:11:16.711Z,44.47
2023-09-27T09:12:16.678Z,43.18
2023-09-27T09:13:18.057Z,42.06
2023-09-27T09:14:16.674Z,41.89
2023-09-27T09:15:16.663Z,42.70
2023-09-27T09:16:16.678Z,46.73
2023-09-27T09:17:16.620Z,48.02
2023-09-27T09:18:16.748Z,46.08
2023-09-27T09:19:17.698Z,48.18
2023-09-27T09:20:16.677Z,41.09
2023-09-27T09:21:16.586Z,42.38
2023-09-27T09:22:16.631Z,47.21
2023-09-27T09:23:16.628Z,47.70
2023-09-27T09:24:16.565Z,44.96
2023-09-27T09:25:16.569Z,40.28
2023-09-27T09:26:16.581Z,44.63
2023-09-27T09:27:17.668Z,48.34
2023-09-27T09:28:17.528Z,42.54
2023-09-27T09:29:16.563Z,43.99
2023-09-27T09:30:16.518Z,46.73
2023-09-27T09:31:16.528Z,49.31
2023-09-27T09:32:16.549Z,42.22
2023-09-27T09:33:16.580Z,45.12
2023-09-27T09:34:16.488Z,40.28
2023-09-27T09:35:16.491Z,40.93
2023-09-27T09:36:16.491Z,48.66
2023-09-27T09:37:16.483Z,42.70
2023-09-27T09:38:16.484Z,40.61
2023-09-27T09:39:16.458Z,40.93
2023-09-27T09:40:16.631Z,41.57
2023-09-27T09:41:16.487Z,45.28
2023-09-27T09:42:16.440Z,42.22
2023-09-27T09:43:16.433Z,44.79
2023-09-27T09:44:16.462Z,48.34
2023-09-27T09:45:16.399Z,41.25
2023-09-27T09:46:16.468Z,43.02
2023-09-27T09:47:16.413Z,41.89
2023-09-27T09:48:16.379Z,49.15
2023-09-27T09:49:16.384Z,40.77
2023-09-27T09:50:16.438Z,41.25
2023-09-27T09:51:16.379Z,42.06
2023-09-27T09:52:16.355Z,48.50
2023-09-27T09:53:16.428Z,42.86
2023-09-27T09:54:16.328Z,40.93
2023-09-27T09:55:26.345Z,42.86
2023-09-27T09:57:28.022Z,45.28
2023-09-27T09:58:18.340Z,40.61
2023-09-27T09:59:16.323Z,44.79
2023-09-27T10:00:16.321Z,48.98
2023-09-27T10:01:16.321Z,42.22
2023-09-27T10:02:16.272Z,45.12
2023-09-27T10:03:16.287Z,41.57
2023-09-27T10:04:16.334Z,42.22
2023-09-27T10:05:16.349Z,46.89
2023-09-27T10:06:16.284Z,45.12
2023-09-27T10:07:16.238Z,46.73
2023-09-27T10:08:16.260Z,48.66
2023-09-27T10:09:17.038Z,48.82
2023-09-27T10:10:16.220Z,43.67
2023-09-27T10:11:16.256Z,40.61
2023-09-27T10:12:16.197Z,40.61
2023-09-27T10:13:16.199Z,46.25
2023-09-27T10:14:16.251Z,42.38
2023-09-27T10:15:16.194Z,41.57
2023-09-27T10:16:16.202Z,42.86
2023-09-27T10:17:16.206Z,49.31
2023-09-27T10:18:16.184Z,42.70
2023-09-27T10:19:16.166Z,43.67
2023-09-27T10:20:16.205Z,43.02
2023-09-27T10:21:16.124Z,49.31
2023-09-27T10:22:16.141Z,43.18
2023-09-27T10:23:16.172Z,48.02
2023-09-27T10:24:16.109Z,45.60
2023-09-27T10:25:16.094Z,42.70
2023-09-27T10:26:16.092Z,47.37
2023-09-27T10:27:16.089Z,43.83
2023-09-27T10:28:16.110Z,42.06
2023-09-27T10:29:16.088Z,41.57
2023-09-27T10:30:16.065Z,41.41
2023-09-27T10:31:16.099Z,47.21
2023-09-27T10:32:16.062Z,42.06
2023-09-27T10:33:16.221Z,44.63
2023-09-27T10:34:16.034Z,41.25
2023-09-27T10:35:16.041Z,40.77
2023-09-27T10:36:17.022Z,42.86
2023-09-27T10:37:19.304Z,40.93
2023-09-27T10:38:18.090Z,41.89
2023-09-27T10:39:15.992Z,47.70
2023-09-27T10:40:15.990Z,43.02
2023-09-27T10:41:16.061Z,42.70
2023-09-27T10:42:16.109Z,43.02
2023-09-27T10:43:15.998Z,41.89
2023-09-27T10:44:15.969Z,43.18
2023-09-27T10:45:15.958Z,45.44
2023-09-27T10:46:16.057Z,40.44
2023-09-27T10:47:15.968Z,47.70
2023-09-27T10:48:15.995Z,44.79
2023-09-27T10:49:17.309Z,43.18
2023-09-27T10:50:15.947Z,43.51
2023-09-27T10:51:16.072Z,43.67
2023-09-27T10:52:15.912Z,45.44
2023-09-27T10:53:16.882Z,40.61
2023-09-27T10:54:15.880Z,42.38
2023-09-27T10:55:15.915Z,48.18
2023-09-27T10:56:15.932Z,43.34
2023-09-27T10:57:15.950Z,43.99
2023-09-27T10:58:15.848Z,42.86
2023-09-27T10:59:15.892Z,44.79
2023-09-27T11:00:15.843Z,44.15
2023-09-27T11:01:15.869Z,46.89
2023-09-27T11:02:15.851Z,39.48
2023-09-27T11:03:15.882Z,41.57
2023-09-27T11:04:15.822Z,46.89
2023-09-27T11:05:15.834Z,42.70
2023-09-27T11:06:15.825Z,41.57
2023-09-27T11:07:15.782Z,42.06
2023-09-27T11:08:15.789Z,47.21
2023-09-27T11:09:15.780Z,45.60
2023-09-27T11:10:15.808Z,45.28
2023-09-27T11:11:15.785Z,46.08
2023-09-27T11:12:15.740Z,45.12
2023-09-27T11:13:15.735Z,47.05
2023-09-27T11:14:15.752Z,42.38
2023-09-27T11:15:15.748Z,41.89
2023-09-27T11:16:15.713Z,44.79
2023-09-27T11:17:15.738Z,41.89
2023-09-27T11:18:15.869Z,46.89
2023-09-27T11:19:15.693Z,47.37
2023-09-27T11:20:15.742Z,44.31
2023-09-27T11:21:15.682Z,44.63
2023-09-27T11:22:15.671Z,40.93
2023-09-27T11:23:15.713Z,40.77
2023-09-27T11:24:15.676Z,47.21
2023-09-27T11:25:15.673Z,44.79
2023-09-27T11:26:15.711Z,49.63
2023-09-27T11:27:15.636Z,40.44
2023-09-27T11:28:15.628Z,40.93
2023-09-27T11:29:15.720Z,46.73
2023-09-27T11:30:15.609Z,42.70
2023-09-27T11:31:15.635Z,45.76
2023-09-27T11:32:15.618Z,42.22
2023-09-27T11:33:15.595Z,41.25
2023-09-27T11:34:15.613Z,46.73
2023-09-27T11:35:15.613Z,44.15
2023-09-27T11:36:15.571Z,41.57
2023-09-27T11:37:15.599Z,40.44
2023-09-27T11:38:15.665Z,43.51
2023-09-27T11:39:15.583Z,44.96
2023-09-27T11:40:15.534Z,46.89
2023-09-27T11:41:15.653Z,40.12
2023-09-27T11:42:15.523Z,38.83
2023-09-27T11:43:15.539Z,46.73
2023-09-27T11:44:15.531Z,41.41
2023-09-27T11:45:15.493Z,46.25
2023-09-27T11:46:15.548Z,43.34
2023-09-27T11:47:15.511Z,43.51
2023-09-27T11:48:15.525Z,48.02
2023-09-27T11:49:15.472Z,47.05
2023-09-27T11:50:15.484Z,44.63
2023-09-27T11:51:15.499Z,40.93
2023-09-27T11:52:15.485Z,40.77
2023-09-27T11:53:15.607Z,45.28
2023-09-27T11:54:15.433Z,41.57
2023-09-27T11:55:15.461Z,45.76
2023-09-27T11:56:15.496Z,39.96
2023-09-27T11:57:15.433Z,39.48
2023-09-27T11:58:15.422Z,45.60
2023-09-27T11:59:15.482Z,45.12
2023-09-27T12:00:15.393Z,45.60
2023-09-27T12:01:15.406Z,39.64
2023-09-27T12:02:25.920Z,40.28
2023-09-27T12:03:17.465Z,46.57
2023-09-27T12:04:15.510Z,43.67
2023-09-27T12:05:16.535Z,40.93
2023-09-27T12:06:15.594Z,38.83
2023-09-27T12:07:15.575Z,39.96
2023-09-27T12:08:15.354Z,45.60
2023-09-27T12:09:15.307Z,43.83
2023-09-27T12:10:15.313Z,45.28
2023-09-27T12:11:15.312Z,42.22
2023-09-27T12:12:15.311Z,40.28
2023-09-27T12:13:15.278Z,45.60
2023-09-27T12:14:15.307Z,43.51
2023-09-27T12:15:15.273Z,40.93
2023-09-27T12:16:15.301Z,40.44
2023-09-27T12:17:15.312Z,47.70
2023-09-27T12:18:15.352Z,45.12
2023-09-27T12:19:15.226Z,43.67
2023-09-27T12:20:26.867Z,45.92
2023-09-27T12:21:17.275Z,40.28
2023-09-27T12:22:15.201Z,43.18
2023-09-27T12:23:15.219Z,46.57
2023-09-27T12:24:15.219Z,48.66
2023-09-27T12:25:15.195Z,42.54
2023-09-27T12:26:15.232Z,46.89
2023-09-27T12:27:16.192Z,47.21
2023-09-27T12:28:15.166Z,43.34
2023-09-27T12:29:15.211Z,40.28
2023-09-27T12:30:15.202Z,42.22
2023-09-27T12:31:15.200Z,44.15
2023-09-27T12:32:15.166Z,43.02
2023-09-27T12:33:15.366Z,42.86
2023-09-27T12:34:15.143Z,46.41
2023-09-27T12:35:15.167Z,41.25
2023-09-27T12:36:15.106Z,40.44
2023-09-27T12:37:15.096Z,46.89
2023-09-27T12:38:15.109Z,44.15
2023-09-27T12:39:15.989Z,46.25
2023-09-27T12:40:15.284Z,44.15
2023-09-27T12:41:15.095Z,41.89
2023-09-27T12:42:15.059Z,46.08
2023-09-27T12:43:15.070Z,45.12
2023-09-27T12:44:22.241Z,44.96
2023-09-27T12:45:17.054Z,44.47
2023-09-27T12:46:15.121Z,40.77
2023-09-27T12:47:15.037Z,47.05
2023-09-27T12:48:15.086Z,47.05
2023-09-27T12:49:15.480Z,44.15
2023-09-27T12:50:15.030Z,46.25
2023-09-27T12:51:14.999Z,42.22
2023-09-27T12:52:14.985Z,43.02
2023-09-27T12:53:14.992Z,47.37